sensor_id;sensor_type;location;lat;lon;timestamp;temperature;humidity
52965;DHT22;42923;53.220;6.528;2023-05-20T00:01:22;10.60;99.90
52965;DHT22;42923;53.220;6.528;2023-05-20T00:03:47;10.70;99.90
52965;DHT22;42923;53.220;6.528;2023-05-20T00:06:13;10.80;99.90
52965;DHT22;42923;53.220;6.528;2023-05-20T00:08:39;10.70;99.90
52965;DHT22;42923;53.220;6.528;2023-05-20T00:11:04;10.70;99.90
52965;DHT22;42923;53.220;6.528;2023-05-20T00:13:30;10.70;99.90
52965;DHT22;42923;53.220;6.528;2023-05-20T00:15:56;10.70;99.90
52965;DHT22;42923;53.220;6.528;2023-05-20T00:18:22;10.60;99.90
52965;DHT22;42923;53.220;6.528;2023-05-20T00:20:47;10.60;99.90
52965;DHT22;42923;53.220;6.528;2023-05-20T00:23:13;10.60;99.90
52965;DHT22;42923;53.220;6.528;2023-05-20T00:25:39;10.50;99.90
52965;DHT22;42923;53.220;6.528;2023-05-20T00:28:05;10.60;99.90
52965;DHT22;42923;53.220;6.528;2023-05-20T00:30:31;10.50;99.90
52965;DHT22;42923;53.220;6.528;2023-05-20T00:32:57;10.50;99.90
52965;DHT22;42923;53.220;6.528;2023-05-20T00:35:22;10.50;99.90
52965;DHT22;42923;53.220;6.528;2023-05-20T00:37:48;10.40;99.90
52965;DHT22;42923;53.220;6.528;2023-05-20T00:40:14;10.40;99.90
52965;DHT22;42923;53.220;6.528;2023-05-20T00:42:40;10.40;99.90
52965;DHT22;42923;53.220;6.528;2023-05-20T00:45:06;10.40;99.90
52965;DHT22;42923;53.220;6.528;2023-05-20T00:47:33;10.40;99.90
52965;DHT22;42923;53.220;6.528;2023-05-20T00:50:01;10.30;99.90
52965;DHT22;42923;53.220;6.528;2023-05-20T00:52:31;10.30;99.90
52965;DHT22;42923;53.220;6.528;2023-05-20T00:54:57;10.30;99.90
52965;DHT22;42923;53.220;6.528;2023-05-20T00:57:24;10.30;99.90
52965;DHT22;42923;53.220;6.528;2023-05-20T00:59:50;10.30;99.90
52965;DHT22;42923;53.220;6.528;2023-05-20T01:02:16;10.30;99.90
52965;DHT22;42923;53.220;6.528;2023-05-20T01:04:43;10.30;99.90
52965;DHT22;42923;53.220;6.528;2023-05-20T01:07:12;10.40;99.90
52965;DHT22;42923;53.220;6.528;2023-05-20T01:09:38;10.30;99.90
52965;DHT22;42923;53.220;6.528;2023-05-20T01:12:19;10.30;99.90
52965;DHT22;42923;53.220;6.528;2023-05-20T01:14:57;10.30;99.90
52965;DHT22;42923;53.220;6.528;2023-05-20T01:17:29;10.40;99.90
52965;DHT22;42923;53.220;6.528;2023-05-20T01:19:57;10.30;99.90
52965;DHT22;42923;53.220;6.528;2023-05-20T01:22:26;10.30;99.90
52965;DHT22;42923;53.220;6.528;2023-05-20T01:24:51;10.30;99.90
52965;DHT22;42923;53.220;6.528;2023-05-20T01:27:19;10.30;99.90
52965;DHT22;42923;53.220;6.528;2023-05-20T01:29:49;10.30;99.90
52965;DHT22;42923;53.220;6.528;2023-05-20T01:34:50;10.30;99.90
52965;DHT22;42923;53.220;6.528;2023-05-20T01:37:17;10.30;99.90
52965;DHT22;42923;53.220;6.528;2023-05-20T01:39:44;10.30;99.90
52965;DHT22;42923;53.220;6.528;2023-05-20T01:42:11;10.30;99.90
52965;DHT22;42923;53.220;6.528;2023-05-20T01:44:38;10.30;99.90
52965;DHT22;42923;53.220;6.528;2023-05-20T01:47:04;10.20;99.90
52965;DHT22;42923;53.220;6.528;2023-05-20T01:49:30;10.20;99.90
52965;DHT22;42923;53.220;6.528;2023-05-20T01:51:56;10.20;99.90
52965;DHT22;42923;53.220;6.528;2023-05-20T01:54:22;10.20;99.90
52965;DHT22;42923;53.220;6.528;2023-05-20T01:56:48;10.10;99.90
52965;DHT22;42923;53.220;6.528;2023-05-20T01:59:14;10.10;99.90
52965;DHT22;42923;53.220;6.528;2023-05-20T02:01:40;10.10;99.90
52965;DHT22;42923;53.220;6.528;2023-05-20T02:04:06;10.00;99.90
52965;DHT22;42923;53.220;6.528;2023-05-20T02:06:31;10.00;99.90
52965;DHT22;42923;53.220;6.528;2023-05-20T02:08:57;10.00;99.90
52965;DHT22;42923;53.220;6.528;2023-05-20T02:11:23;10.00;99.90
52965;DHT22;42923;53.220;6.528;2023-05-20T02:13:49;10.00;99.90
52965;DHT22;42923;53.220;6.528;2023-05-20T02:16:16;10.00;99.90
52965;DHT22;42923;53.220;6.528;2023-05-20T02:18:42;9.90;99.90
52965;DHT22;42923;53.220;6.528;2023-05-20T02:21:08;9.90;99.90
52965;DHT22;42923;53.220;6.528;2023-05-20T02:23:34;9.90;99.90
52965;DHT22;42923;53.220;6.528;2023-05-20T02:26:00;9.90;99.90
52965;DHT22;42923;53.220;6.528;2023-05-20T02:28:27;9.90;99.90
52965;DHT22;42923;53.220;6.528;2023-05-20T02:30:54;9.90;99.90
52965;DHT22;42923;53.220;6.528;2023-05-20T02:33:19;9.90;99.90
52965;DHT22;42923;53.220;6.528;2023-05-20T02:35:45;10.00;99.90
52965;DHT22;42923;53.220;6.528;2023-05-20T02:38:12;10.40;99.90
52965;DHT22;42923;53.220;6.528;2023-05-20T02:40:38;9.90;99.90
52965;DHT22;42923;53.220;6.528;2023-05-20T02:43:04;9.80;99.90
52965;DHT22;42923;53.220;6.528;2023-05-20T02:45:33;9.80;99.90
52965;DHT22;42923;53.220;6.528;2023-05-20T02:47:58;9.80;99.90
52965;DHT22;42923;53.220;6.528;2023-05-20T02:50:24;9.80;99.90
52965;DHT22;42923;53.220;6.528;2023-05-20T02:52:50;9.80;99.90
52965;DHT22;42923;53.220;6.528;2023-05-20T02:55:16;9.80;99.90
52965;DHT22;42923;53.220;6.528;2023-05-20T02:57:42;9.90;99.90
52965;DHT22;42923;53.220;6.528;2023-05-20T03:00:10;9.90;99.90
52965;DHT22;42923;53.220;6.528;2023-05-20T03:02:36;9.90;99.90
52965;DHT22;42923;53.220;6.528;2023-05-20T03:05:02;9.90;99.90
52965;DHT22;42923;53.220;6.528;2023-05-20T03:07:30;9.90;99.90
52965;DHT22;42923;53.220;6.528;2023-05-20T03:09:56;10.00;99.90
52965;DHT22;42923;53.220;6.528;2023-05-20T03:12:24;10.00;99.90
52965;DHT22;42923;53.220;6.528;2023-05-20T03:14:51;10.10;99.90
52965;DHT22;42923;53.220;6.528;2023-05-20T03:17:20;10.10;99.90
52965;DHT22;42923;53.220;6.528;2023-05-20T03:19:46;10.20;99.90
52965;DHT22;42923;53.220;6.528;2023-05-20T03:22:12;10.20;99.90
52965;DHT22;42923;53.220;6.528;2023-05-20T03:24:37;10.20;99.90
52965;DHT22;42923;53.220;6.528;2023-05-20T03:27:04;10.20;99.90
52965;DHT22;42923;53.220;6.528;2023-05-20T03:29:33;10.10;99.90
52965;DHT22;42923;53.220;6.528;2023-05-20T03:31:59;10.10;99.90
52965;DHT22;42923;53.220;6.528;2023-05-20T03:34:25;10.00;99.90
52965;DHT22;42923;53.220;6.528;2023-05-20T03:36:53;10.00;99.90
52965;DHT22;42923;53.220;6.528;2023-05-20T03:39:19;10.00;99.90
52965;DHT22;42923;53.220;6.528;2023-05-20T03:41:45;9.90;99.90
52965;DHT22;42923;53.220;6.528;2023-05-20T03:44:10;10.00;99.90
52965;DHT22;42923;53.220;6.528;2023-05-20T03:46:37;9.90;99.90
52965;DHT22;42923;53.220;6.528;2023-05-20T03:49:03;9.90;99.90
52965;DHT22;42923;53.220;6.528;2023-05-20T03:51:30;9.80;99.90
52965;DHT22;42923;53.220;6.528;2023-05-20T03:54:02;9.80;99.90
52965;DHT22;42923;53.220;6.528;2023-05-20T03:56:28;9.80;99.90
52965;DHT22;42923;53.220;6.528;2023-05-20T03:58:54;9.80;99.90
52965;DHT22;42923;53.220;6.528;2023-05-20T04:01:19;9.90;99.90
52965;DHT22;42923;53.220;6.528;2023-05-20T04:03:45;9.90;99.90
52965;DHT22;42923;53.220;6.528;2023-05-20T04:06:12;10.00;99.90
52965;DHT22;42923;53.220;6.528;2023-05-20T04:08:38;10.00;99.90
52965;DHT22;42923;53.220;6.528;2023-05-20T04:11:04;10.10;99.90
52965;DHT22;42923;53.220;6.528;2023-05-20T04:13:30;10.20;99.90
52965;DHT22;42923;53.220;6.528;2023-05-20T04:15:56;10.20;99.90
52965;DHT22;42923;53.220;6.528;2023-05-20T04:18:22;10.30;99.90
52965;DHT22;42923;53.220;6.528;2023-05-20T04:20:48;10.30;99.90
52965;DHT22;42923;53.220;6.528;2023-05-20T04:23:14;10.40;99.90
52965;DHT22;42923;53.220;6.528;2023-05-20T04:25:40;10.40;99.90
52965;DHT22;42923;53.220;6.528;2023-05-20T04:28:06;10.50;99.90
52965;DHT22;42923;53.220;6.528;2023-05-20T04:30:35;10.50;99.90
52965;DHT22;42923;53.220;6.528;2023-05-20T04:33:01;10.50;99.90
52965;DHT22;42923;53.220;6.528;2023-05-20T04:35:31;10.60;99.90
52965;DHT22;42923;53.220;6.528;2023-05-20T04:38:02;10.70;99.90
52965;DHT22;42923;53.220;6.528;2023-05-20T04:40:27;10.70;99.90
52965;DHT22;42923;53.220;6.528;2023-05-20T04:42:53;10.80;99.90
52965;DHT22;42923;53.220;6.528;2023-05-20T04:45:20;10.80;99.90
52965;DHT22;42923;53.220;6.528;2023-05-20T04:47:47;10.90;99.90
52965;DHT22;42923;53.220;6.528;2023-05-20T04:50:13;11.00;99.90
52965;DHT22;42923;53.220;6.528;2023-05-20T04:52:40;11.10;99.90
52965;DHT22;42923;53.220;6.528;2023-05-20T04:55:08;11.20;99.90
52965;DHT22;42923;53.220;6.528;2023-05-20T04:57:36;11.20;99.90
52965;DHT22;42923;53.220;6.528;2023-05-20T05:00:05;11.20;99.90
52965;DHT22;42923;53.220;6.528;2023-05-20T05:02:33;11.30;99.90
52965;DHT22;42923;53.220;6.528;2023-05-20T05:04:59;11.30;99.90
52965;DHT22;42923;53.220;6.528;2023-05-20T05:07:24;11.30;99.90
52965;DHT22;42923;53.220;6.528;2023-05-20T05:09:50;11.40;99.90
52965;DHT22;42923;53.220;6.528;2023-05-20T05:12:16;11.40;99.90
52965;DHT22;42923;53.220;6.528;2023-05-20T05:14:42;11.50;99.90
52965;DHT22;42923;53.220;6.528;2023-05-20T05:17:08;11.50;99.90
52965;DHT22;42923;53.220;6.528;2023-05-20T05:19:34;11.60;99.90
52965;DHT22;42923;53.220;6.528;2023-05-20T05:22:01;11.60;99.90
52965;DHT22;42923;53.220;6.528;2023-05-20T05:24:28;11.70;99.90
52965;DHT22;42923;53.220;6.528;2023-05-20T05:26:54;11.70;99.90
52965;DHT22;42923;53.220;6.528;2023-05-20T05:29:21;11.80;99.90
52965;DHT22;42923;53.220;6.528;2023-05-20T05:31:47;11.90;99.90
52965;DHT22;42923;53.220;6.528;2023-05-20T05:34:13;12.00;99.90
52965;DHT22;42923;53.220;6.528;2023-05-20T05:36:39;12.10;99.90
52965;DHT22;42923;53.220;6.528;2023-05-20T05:39:05;12.30;99.90
52965;DHT22;42923;53.220;6.528;2023-05-20T05:41:31;12.50;99.90
52965;DHT22;42923;53.220;6.528;2023-05-20T05:43:58;12.50;99.90
52965;DHT22;42923;53.220;6.528;2023-05-20T05:46:24;12.70;99.90
52965;DHT22;42923;53.220;6.528;2023-05-20T05:48:50;12.80;99.90
52965;DHT22;42923;53.220;6.528;2023-05-20T05:51:17;12.90;99.90
52965;DHT22;42923;53.220;6.528;2023-05-20T05:53:43;12.90;99.90
52965;DHT22;42923;53.220;6.528;2023-05-20T05:56:09;13.00;99.90
52965;DHT22;42923;53.220;6.528;2023-05-20T05:58:36;13.00;99.90
52965;DHT22;42923;53.220;6.528;2023-05-20T06:01:04;13.00;99.90
52965;DHT22;42923;53.220;6.528;2023-05-20T06:03:30;13.10;99.90
52965;DHT22;42923;53.220;6.528;2023-05-20T06:05:56;13.10;99.90
52965;DHT22;42923;53.220;6.528;2023-05-20T06:08:22;13.10;99.90
52965;DHT22;42923;53.220;6.528;2023-05-20T06:10:49;13.20;99.90
52965;DHT22;42923;53.220;6.528;2023-05-20T06:13:16;13.20;99.90
52965;DHT22;42923;53.220;6.528;2023-05-20T06:15:42;13.20;99.90
52965;DHT22;42923;53.220;6.528;2023-05-20T06:18:07;13.30;99.90
52965;DHT22;42923;53.220;6.528;2023-05-20T06:20:33;13.30;99.90
52965;DHT22;42923;53.220;6.528;2023-05-20T06:22:59;13.30;99.90
52965;DHT22;42923;53.220;6.528;2023-05-20T06:25:32;13.30;99.90
52965;DHT22;42923;53.220;6.528;2023-05-20T06:27:58;13.30;99.90
52965;DHT22;42923;53.220;6.528;2023-05-20T06:30:24;13.40;99.90
52965;DHT22;42923;53.220;6.528;2023-05-20T06:32:49;13.40;99.90
52965;DHT22;42923;53.220;6.528;2023-05-20T06:35:15;13.50;99.90
52965;DHT22;42923;53.220;6.528;2023-05-20T06:37:41;13.50;99.90
52965;DHT22;42923;53.220;6.528;2023-05-20T06:40:08;13.50;99.90
52965;DHT22;42923;53.220;6.528;2023-05-20T06:42:35;13.50;99.90
52965;DHT22;42923;53.220;6.528;2023-05-20T06:45:02;13.50;99.90
52965;DHT22;42923;53.220;6.528;2023-05-20T06:47:40;13.60;99.90
52965;DHT22;42923;53.220;6.528;2023-05-20T06:50:07;13.60;99.90
52965;DHT22;42923;53.220;6.528;2023-05-20T06:52:33;13.70;99.90
52965;DHT22;42923;53.220;6.528;2023-05-20T06:54:58;13.70;99.90
52965;DHT22;42923;53.220;6.528;2023-05-20T06:57:25;13.70;99.90
52965;DHT22;42923;53.220;6.528;2023-05-20T06:59:50;13.80;99.90
52965;DHT22;42923;53.220;6.528;2023-05-20T07:02:18;13.90;99.90
52965;DHT22;42923;53.220;6.528;2023-05-20T07:04:43;14.00;99.90
52965;DHT22;42923;53.220;6.528;2023-05-20T07:07:09;14.10;99.90
52965;DHT22;42923;53.220;6.528;2023-05-20T07:09:35;14.20;99.90
52965;DHT22;42923;53.220;6.528;2023-05-20T07:12:01;14.40;99.90
52965;DHT22;42923;53.220;6.528;2023-05-20T07:14:28;14.40;99.90
52965;DHT22;42923;53.220;6.528;2023-05-20T07:16:54;14.50;99.90
52965;DHT22;42923;53.220;6.528;2023-05-20T07:19:21;14.70;99.90
52965;DHT22;42923;53.220;6.528;2023-05-20T07:21:46;14.60;99.90
52965;DHT22;42923;53.220;6.528;2023-05-20T07:24:34;14.80;99.90
52965;DHT22;42923;53.220;6.528;2023-05-20T07:27:02;15.10;99.90
52965;DHT22;42923;53.220;6.528;2023-05-20T07:29:28;15.20;99.90
52965;DHT22;42923;53.220;6.528;2023-05-20T07:31:54;15.30;99.90
52965;DHT22;42923;53.220;6.528;2023-05-20T07:34:19;15.40;99.90
52965;DHT22;42923;53.220;6.528;2023-05-20T07:36:47;15.40;99.90
52965;DHT22;42923;53.220;6.528;2023-05-20T07:39:14;15.50;99.90
52965;DHT22;42923;53.220;6.528;2023-05-20T07:41:40;15.60;99.90
52965;DHT22;42923;53.220;6.528;2023-05-20T07:44:06;15.60;99.90
52965;DHT22;42923;53.220;6.528;2023-05-20T07:46:38;15.60;99.90
52965;DHT22;42923;53.220;6.528;2023-05-20T07:49:06;15.70;99.90
52965;DHT22;42923;53.220;6.528;2023-05-20T07:51:32;15.80;99.90
52965;DHT22;42923;53.220;6.528;2023-05-20T07:53:58;15.80;99.90
52965;DHT22;42923;53.220;6.528;2023-05-20T07:56:25;15.90;99.90
52965;DHT22;42923;53.220;6.528;2023-05-20T07:58:56;15.90;99.90
52965;DHT22;42923;53.220;6.528;2023-05-20T08:01:29;16.00;99.90
52965;DHT22;42923;53.220;6.528;2023-05-20T08:03:55;16.10;99.90
52965;DHT22;42923;53.220;6.528;2023-05-20T08:06:23;16.20;99.90
52965;DHT22;42923;53.220;6.528;2023-05-20T08:08:49;16.30;99.90
52965;DHT22;42923;53.220;6.528;2023-05-20T08:11:21;16.40;99.90
52965;DHT22;42923;53.220;6.528;2023-05-20T08:13:47;16.40;99.90
52965;DHT22;42923;53.220;6.528;2023-05-20T08:16:14;16.40;99.90
52965;DHT22;42923;53.220;6.528;2023-05-20T08:18:42;16.40;99.90
52965;DHT22;42923;53.220;6.528;2023-05-20T08:21:08;16.60;99.90
52965;DHT22;42923;53.220;6.528;2023-05-20T08:23:35;16.70;99.90
52965;DHT22;42923;53.220;6.528;2023-05-20T08:26:01;16.80;99.90
52965;DHT22;42923;53.220;6.528;2023-05-20T08:28:29;16.80;99.90
52965;DHT22;42923;53.220;6.528;2023-05-20T08:30:56;16.90;99.90
52965;DHT22;42923;53.220;6.528;2023-05-20T08:33:22;17.00;99.90
52965;DHT22;42923;53.220;6.528;2023-05-20T08:35:49;16.80;99.90
52965;DHT22;42923;53.220;6.528;2023-05-20T08:38:14;16.90;99.90
52965;DHT22;42923;53.220;6.528;2023-05-20T08:40:40;17.00;99.90
52965;DHT22;42923;53.220;6.528;2023-05-20T08:43:06;17.10;99.90
52965;DHT22;42923;53.220;6.528;2023-05-20T08:45:33;17.10;99.90
52965;DHT22;42923;53.220;6.528;2023-05-20T08:48:04;17.10;99.90
52965;DHT22;42923;53.220;6.528;2023-05-20T08:50:30;17.20;99.90
52965;DHT22;42923;53.220;6.528;2023-05-20T08:52:56;17.40;99.90
52965;DHT22;42923;53.220;6.528;2023-05-20T08:55:42;17.40;99.90
52965;DHT22;42923;53.220;6.528;2023-05-20T08:58:11;17.50;99.90
52965;DHT22;42923;53.220;6.528;2023-05-20T09:00:37;17.60;99.90
52965;DHT22;42923;53.220;6.528;2023-05-20T09:03:03;17.70;99.90
52965;DHT22;42923;53.220;6.528;2023-05-20T09:05:28;17.70;99.90
52965;DHT22;42923;53.220;6.528;2023-05-20T09:08:07;17.80;99.90
52965;DHT22;42923;53.220;6.528;2023-05-20T09:10:34;17.80;99.90
52965;DHT22;42923;53.220;6.528;2023-05-20T09:13:02;17.80;99.90
52965;DHT22;42923;53.220;6.528;2023-05-20T09:15:29;17.90;99.90
52965;DHT22;42923;53.220;6.528;2023-05-20T09:18:02;18.00;99.90
52965;DHT22;42923;53.220;6.528;2023-05-20T09:20:28;18.20;99.90
52965;DHT22;42923;53.220;6.528;2023-05-20T09:22:58;18.20;99.90
52965;DHT22;42923;53.220;6.528;2023-05-20T09:25:25;18.40;99.90
52965;DHT22;42923;53.220;6.528;2023-05-20T09:27:50;18.40;99.90
52965;DHT22;42923;53.220;6.528;2023-05-20T09:30:20;18.50;99.90
52965;DHT22;42923;53.220;6.528;2023-05-20T09:32:53;18.70;99.90
52965;DHT22;42923;53.220;6.528;2023-05-20T09:35:21;18.70;99.90
52965;DHT22;42923;53.220;6.528;2023-05-20T09:37:52;18.80;99.90
52965;DHT22;42923;53.220;6.528;2023-05-20T09:40:25;19.00;99.90
52965;DHT22;42923;53.220;6.528;2023-05-20T09:43:02;19.10;99.90
52965;DHT22;42923;53.220;6.528;2023-05-20T09:45:29;19.20;99.90
52965;DHT22;42923;53.220;6.528;2023-05-20T09:47:55;19.30;99.90
52965;DHT22;42923;53.220;6.528;2023-05-20T09:50:22;19.30;99.90
52965;DHT22;42923;53.220;6.528;2023-05-20T09:52:50;19.40;99.90
52965;DHT22;42923;53.220;6.528;2023-05-20T09:55:20;19.50;99.90
52965;DHT22;42923;53.220;6.528;2023-05-20T09:57:46;19.60;99.90
52965;DHT22;42923;53.220;6.528;2023-05-20T10:00:13;19.60;99.90
52965;DHT22;42923;53.220;6.528;2023-05-20T10:02:47;19.60;99.90
52965;DHT22;42923;53.220;6.528;2023-05-20T10:05:21;19.60;99.90
52965;DHT22;42923;53.220;6.528;2023-05-20T10:08:02;19.70;99.90
52965;DHT22;42923;53.220;6.528;2023-05-20T10:10:43;19.80;99.90
52965;DHT22;42923;53.220;6.528;2023-05-20T10:13:36;19.70;99.80
52965;DHT22;42923;53.220;6.528;2023-05-20T10:19:28;19.80;99.00
52965;DHT22;42923;53.220;6.528;2023-05-20T10:22:05;19.90;99.90
52965;DHT22;42923;53.220;6.528;2023-05-20T10:24:36;19.90;99.90
52965;DHT22;42923;53.220;6.528;2023-05-20T10:27:06;19.90;99.90
52965;DHT22;42923;53.220;6.528;2023-05-20T10:30:14;20.00;98.30
52965;DHT22;42923;53.220;6.528;2023-05-20T10:32:48;19.90;97.60
52965;DHT22;42923;53.220;6.528;2023-05-20T10:35:22;19.90;97.50
52965;DHT22;42923;53.220;6.528;2023-05-20T10:37:51;19.80;98.10
52965;DHT22;42923;53.220;6.528;2023-05-20T10:40:19;20.00;99.40
52965;DHT22;42923;53.220;6.528;2023-05-20T10:42:45;20.10;96.40
52965;DHT22;42923;53.220;6.528;2023-05-20T10:45:24;19.90;98.50
52965;DHT22;42923;53.220;6.528;2023-05-20T10:47:57;20.10;97.30
52965;DHT22;42923;53.220;6.528;2023-05-20T10:50:33;19.90;96.60
52965;DHT22;42923;53.220;6.528;2023-05-20T10:53:05;19.80;97.60
52965;DHT22;42923;53.220;6.528;2023-05-20T10:55:48;19.80;97.50
52965;DHT22;42923;53.220;6.528;2023-05-20T10:58:16;19.70;97.70
52965;DHT22;42923;53.220;6.528;2023-05-20T11:00:43;19.60;97.00
52965;DHT22;42923;53.220;6.528;2023-05-20T11:03:09;19.30;98.10
52965;DHT22;42923;53.220;6.528;2023-05-20T11:05:38;19.30;98.80
52965;DHT22;42923;53.220;6.528;2023-05-20T11:08:06;19.40;99.80
52965;DHT22;42923;53.220;6.528;2023-05-20T11:10:36;19.50;99.60
52965;DHT22;42923;53.220;6.528;2023-05-20T11:13:03;19.50;99.70
52965;DHT22;42923;53.220;6.528;2023-05-20T11:15:30;19.60;99.90
52965;DHT22;42923;53.220;6.528;2023-05-20T11:18:01;19.70;98.50
52965;DHT22;42923;53.220;6.528;2023-05-20T11:20:27;19.50;98.20
52965;DHT22;42923;53.220;6.528;2023-05-20T11:22:53;19.30;99.90
52965;DHT22;42923;53.220;6.528;2023-05-20T11:25:21;19.40;99.90
52965;DHT22;42923;53.220;6.528;2023-05-20T11:27:49;19.50;99.90
52965;DHT22;42923;53.220;6.528;2023-05-20T11:30:15;19.70;99.90
52965;DHT22;42923;53.220;6.528;2023-05-20T11:33:02;19.90;99.90
52965;DHT22;42923;53.220;6.528;2023-05-20T11:35:29;20.00;99.90
52965;DHT22;42923;53.220;6.528;2023-05-20T11:38:00;19.90;99.90
52965;DHT22;42923;53.220;6.528;2023-05-20T11:40:27;19.60;99.90
52965;DHT22;42923;53.220;6.528;2023-05-20T11:43:02;19.50;99.90
52965;DHT22;42923;53.220;6.528;2023-05-20T11:45:41;19.80;99.90
52965;DHT22;42923;53.220;6.528;2023-05-20T11:48:07;20.20;99.90
52965;DHT22;42923;53.220;6.528;2023-05-20T11:50:41;20.70;99.90
52965;DHT22;42923;53.220;6.528;2023-05-20T11:53:09;21.00;99.90
52965;DHT22;42923;53.220;6.528;2023-05-20T11:55:49;20.90;99.00
52965;DHT22;42923;53.220;6.528;2023-05-20T11:58:26;20.70;98.40
52965;DHT22;42923;53.220;6.528;2023-05-20T12:00:52;20.60;99.90
52965;DHT22;42923;53.220;6.528;2023-05-20T12:03:18;20.80;99.90
52965;DHT22;42923;53.220;6.528;2023-05-20T12:05:44;21.10;99.90
52965;DHT22;42923;53.220;6.528;2023-05-20T12:08:11;21.10;99.80
52965;DHT22;42923;53.220;6.528;2023-05-20T12:10:37;21.30;99.40
52965;DHT22;42923;53.220;6.528;2023-05-20T12:13:03;21.50;99.90
52965;DHT22;42923;53.220;6.528;2023-05-20T12:15:29;21.70;99.30
52965;DHT22;42923;53.220;6.528;2023-05-20T12:17:55;21.90;97.00
52965;DHT22;42923;53.220;6.528;2023-05-20T12:20:22;21.80;97.10
52965;DHT22;42923;53.220;6.528;2023-05-20T12:22:48;22.00;96.80
52965;DHT22;42923;53.220;6.528;2023-05-20T12:25:16;22.10;96.40
52965;DHT22;42923;53.220;6.528;2023-05-20T12:27:42;22.10;93.90
52965;DHT22;42923;53.220;6.528;2023-05-20T12:30:14;21.90;93.10
52965;DHT22;42923;53.220;6.528;2023-05-20T12:32:40;21.70;93.60
52965;DHT22;42923;53.220;6.528;2023-05-20T12:35:08;21.40;94.00
52965;DHT22;42923;53.220;6.528;2023-05-20T12:37:35;21.10;93.70
52965;DHT22;42923;53.220;6.528;2023-05-20T12:40:01;20.80;94.20
52965;DHT22;42923;53.220;6.528;2023-05-20T12:42:30;20.40;95.50
52965;DHT22;42923;53.220;6.528;2023-05-20T12:44:56;20.20;95.80
52965;DHT22;42923;53.220;6.528;2023-05-20T12:47:21;20.10;96.30
52965;DHT22;42923;53.220;6.528;2023-05-20T12:49:47;20.00;97.00
52965;DHT22;42923;53.220;6.528;2023-05-20T12:52:13;20.10;98.50
52965;DHT22;42923;53.220;6.528;2023-05-20T12:54:39;20.20;98.20
52965;DHT22;42923;53.220;6.528;2023-05-20T12:57:04;20.20;98.00
52965;DHT22;42923;53.220;6.528;2023-05-20T12:59:30;20.40;98.80
52965;DHT22;42923;53.220;6.528;2023-05-20T13:01:56;20.70;99.30
52965;DHT22;42923;53.220;6.528;2023-05-20T13:04:22;20.90;96.30
52965;DHT22;42923;53.220;6.528;2023-05-20T13:06:48;20.70;96.40
52965;DHT22;42923;53.220;6.528;2023-05-20T13:09:13;20.70;98.30
52965;DHT22;42923;53.220;6.528;2023-05-20T13:11:39;21.10;98.30
52965;DHT22;42923;53.220;6.528;2023-05-20T13:14:05;21.50;97.90
52965;DHT22;42923;53.220;6.528;2023-05-20T13:16:31;21.70;96.20
52965;DHT22;42923;53.220;6.528;2023-05-20T13:18:56;21.70;94.60
52965;DHT22;42923;53.220;6.528;2023-05-20T13:21:22;21.30;93.70
52965;DHT22;42923;53.220;6.528;2023-05-20T13:23:48;20.80;94.30
52965;DHT22;42923;53.220;6.528;2023-05-20T13:26:14;20.40;96.10
52965;DHT22;42923;53.220;6.528;2023-05-20T13:28:39;20.50;98.10
52965;DHT22;42923;53.220;6.528;2023-05-20T13:31:06;20.80;98.60
52965;DHT22;42923;53.220;6.528;2023-05-20T13:33:32;21.00;97.90
52965;DHT22;42923;53.220;6.528;2023-05-20T13:35:58;21.10;96.20
52965;DHT22;42923;53.220;6.528;2023-05-20T13:38:23;21.10;95.40
52965;DHT22;42923;53.220;6.528;2023-05-20T13:40:49;20.90;95.70
52965;DHT22;42923;53.220;6.528;2023-05-20T13:43:15;20.70;95.10
52965;DHT22;42923;53.220;6.528;2023-05-20T13:45:41;20.50;95.60
52965;DHT22;42923;53.220;6.528;2023-05-20T13:48:07;20.30;96.70
52965;DHT22;42923;53.220;6.528;2023-05-20T13:50:33;20.10;97.30
52965;DHT22;42923;53.220;6.528;2023-05-20T13:52:58;19.90;97.70
52965;DHT22;42923;53.220;6.528;2023-05-20T13:55:24;19.80;99.90
52965;DHT22;42923;53.220;6.528;2023-05-20T13:57:50;20.10;99.90
52965;DHT22;42923;53.220;6.528;2023-05-20T14:00:19;20.60;99.90
52965;DHT22;42923;53.220;6.528;2023-05-20T14:02:44;20.50;99.50
52965;DHT22;42923;53.220;6.528;2023-05-20T14:05:12;20.30;99.50
52965;DHT22;42923;53.220;6.528;2023-05-20T14:07:37;20.00;99.70
52965;DHT22;42923;53.220;6.528;2023-05-20T14:10:04;19.80;99.90
52965;DHT22;42923;53.220;6.528;2023-05-20T14:12:30;19.60;99.90
52965;DHT22;42923;53.220;6.528;2023-05-20T14:14:56;19.50;99.90
52965;DHT22;42923;53.220;6.528;2023-05-20T14:17:22;19.40;99.90
52965;DHT22;42923;53.220;6.528;2023-05-20T14:19:48;19.50;99.90
52965;DHT22;42923;53.220;6.528;2023-05-20T14:22:13;19.80;99.90
52965;DHT22;42923;53.220;6.528;2023-05-20T14:24:40;20.40;99.90
52965;DHT22;42923;53.220;6.528;2023-05-20T14:27:06;20.60;98.80
52965;DHT22;42923;53.220;6.528;2023-05-20T14:29:31;20.90;98.60
52965;DHT22;42923;53.220;6.528;2023-05-20T14:31:57;21.40;97.90
52965;DHT22;42923;53.220;6.528;2023-05-20T14:34:23;21.70;95.00
52965;DHT22;42923;53.220;6.528;2023-05-20T14:36:49;21.90;92.80
52965;DHT22;42923;53.220;6.528;2023-05-20T14:39:14;21.60;91.70
52965;DHT22;42923;53.220;6.528;2023-05-20T14:41:41;21.50;92.90
52965;DHT22;42923;53.220;6.528;2023-05-20T14:44:07;21.70;92.00
52965;DHT22;42923;53.220;6.528;2023-05-20T14:46:32;21.80;92.30
52965;DHT22;42923;53.220;6.528;2023-05-20T14:48:59;21.90;92.00
52965;DHT22;42923;53.220;6.528;2023-05-20T14:51:24;21.90;90.70
52965;DHT22;42923;53.220;6.528;2023-05-20T14:53:50;21.70;91.10
52965;DHT22;42923;53.220;6.528;2023-05-20T14:56:16;21.90;91.40
52965;DHT22;42923;53.220;6.528;2023-05-20T14:58:42;21.90;90.10
52965;DHT22;42923;53.220;6.528;2023-05-20T15:01:07;21.40;90.00
52965;DHT22;42923;53.220;6.528;2023-05-20T15:03:33;20.80;89.00
52965;DHT22;42923;53.220;6.528;2023-05-20T15:05:59;20.30;90.50
52965;DHT22;42923;53.220;6.528;2023-05-20T15:08:25;20.00;91.50
52965;DHT22;42923;53.220;6.528;2023-05-20T15:10:50;19.80;92.20
52965;DHT22;42923;53.220;6.528;2023-05-20T15:13:16;19.80;92.70
52965;DHT22;42923;53.220;6.528;2023-05-20T15:15:42;19.70;93.30
52965;DHT22;42923;53.220;6.528;2023-05-20T15:18:07;19.70;92.70
52965;DHT22;42923;53.220;6.528;2023-05-20T15:20:33;19.60;92.70
52965;DHT22;42923;53.220;6.528;2023-05-20T15:22:59;19.50;92.30
52965;DHT22;42923;53.220;6.528;2023-05-20T15:25:24;19.40;92.50
52965;DHT22;42923;53.220;6.528;2023-05-20T15:27:50;19.40;92.70
52965;DHT22;42923;53.220;6.528;2023-05-20T15:30:16;19.30;92.90
52965;DHT22;42923;53.220;6.528;2023-05-20T15:32:42;19.20;93.30
52965;DHT22;42923;53.220;6.528;2023-05-20T15:35:07;19.20;93.70
52965;DHT22;42923;53.220;6.528;2023-05-20T15:37:33;19.40;96.00
52965;DHT22;42923;53.220;6.528;2023-05-20T15:40:03;20.10;95.30